Time;durP1;ratioP1;P1;durP2;ratioP2;P2;SDS_P1;SDS_P2;PMS_P1;PMS_P2;Temp;Humidity;BMP_temperature;BMP_pressure;BME280_temperature;BME280_humidity;BME280_pressure;Samples;Min_cycle;Max_cycle;Signal;HPM_P1;HPM_P2
2023/04/08 00:01:32;;;;;;;14.82;9.20;;;8.90;81.30;;;;;;5026338;28;20044;-75
2023/04/08 00:03:58;;;;;;;13.15;8.52;;;8.90;81.30;;;;;;5031836;28;20021;-75
2023/04/08 00:06:26;;;;;;;13.65;9.40;;;8.80;81.30;;;;;;5034458;28;20034;-75
2023/04/08 00:08:51;;;;;;;14.00;8.93;;;8.90;81.40;;;;;;5036412;28;20496;-75
2023/04/08 00:11:17;;;;;;;13.60;8.98;;;8.90;81.40;;;;;;5034313;28;20050;-75
2023/04/08 00:13:43;;;;;;;13.10;8.63;;;8.90;81.50;;;;;;5036376;28;20736;-75
2023/04/08 00:16:08;;;;;;;13.52;8.70;;;8.80;81.50;;;;;;5022845;28;20131;-76
2023/04/08 00:18:36;;;;;;;17.23;10.23;;;8.90;81.70;;;;;;5032671;28;20024;-76
2023/04/08 00:21:03;;;;;;;12.27;9.23;;;8.90;81.70;;;;;;5034095;28;20041;-75
2023/04/08 00:23:29;;;;;;;14.18;9.32;;;8.90;81.70;;;;;;5029682;28;20074;-76
2023/04/08 00:25:54;;;;;;;14.40;9.27;;;8.90;81.80;;;;;;5035522;28;20047;-75
2023/04/08 00:28:20;;;;;;;16.77;9.45;;;8.90;81.80;;;;;;5033555;28;20034;-75
2023/04/08 00:30:46;;;;;;;12.52;9.05;;;8.90;81.80;;;;;;5033595;28;20520;-76
2023/04/08 00:33:12;;;;;;;13.45;8.68;;;8.90;81.90;;;;;;5027163;28;20029;-77
2023/04/08 00:35:37;;;;;;;18.10;9.32;;;8.90;81.90;;;;;;5024134;28;20022;-75
2023/04/08 00:38:06;;;;;;;13.25;9.50;;;8.90;81.80;;;;;;5035599;28;20026;-75
2023/04/08 00:40:33;;;;;;;13.32;8.85;;;9.00;81.80;;;;;;5027480;28;20036;-76
2023/04/08 00:42:58;;;;;;;14.70;9.48;;;8.90;81.90;;;;;;5026698;28;20041;-75
2023/04/08 00:45:24;;;;;;;14.68;9.50;;;8.90;81.90;;;;;;5018196;28;20080;-75
2023/04/08 00:47:51;;;;;;;14.52;8.85;;;8.90;82.00;;;;;;5029006;28;20052;-75
2023/04/08 00:50:18;;;;;;;12.75;9.30;;;8.90;82.00;;;;;;5018136;28;20033;-76
2023/04/08 00:52:43;;;;;;;13.98;8.52;;;9.00;82.00;;;;;;5022400;28;20056;-77
2023/04/08 00:55:09;;;;;;;17.10;10.13;;;9.00;82.20;;;;;;5020104;28;20482;-76
2023/04/08 00:57:35;;;;;;;14.52;8.77;;;9.00;82.00;;;;;;5024087;28;20398;-76
2023/04/08 01:00:04;;;;;;;15.32;10.07;;;9.00;82.10;;;;;;5023666;28;20042;-75
2023/04/08 01:02:46;;;;;;;15.02;9.38;;;9.00;82.20;;;;;;5033007;28;20041;-76
2023/04/08 01:05:14;;;;;;;15.57;9.45;;;8.90;82.30;;;;;;5031843;28;20034;-75
2023/04/08 01:07:46;;;;;;;12.60;9.68;;;9.00;82.40;;;;;;5027814;28;20049;-77
2023/04/08 01:10:22;;;;;;;13.18;9.50;;;9.00;82.50;;;;;;5012725;28;20475;-75
2023/04/08 01:13:00;;;;;;;15.30;8.85;;;8.90;82.60;;;;;;5032597;28;20445;-76
2023/04/08 01:15:27;;;;;;;12.30;8.75;;;8.90;82.80;;;;;;5023915;28;20104;-75
2023/04/08 01:17:55;;;;;;;15.45;9.65;;;8.90;82.90;;;;;;5026656;28;20030;-75
2023/04/08 01:20:22;;;;;;;14.50;9.38;;;8.90;82.90;;;;;;5034984;28;20037;-75
2023/04/08 01:23:02;;;;;;;14.95;9.50;;;8.90;83.00;;;;;;5030071;28;20033;-77
2023/04/08 01:25:33;;;;;;;12.80;8.90;;;8.90;83.00;;;;;;5027179;28;20033;-76
2023/04/08 01:28:00;;;;;;;15.40;9.57;;;8.90;83.00;;;;;;5028990;28;20037;-75
2023/04/08 01:30:29;;;;;;;14.95;9.73;;;8.90;83.10;;;;;;5028517;28;20033;-76
2023/04/08 01:32:56;;;;;;;14.65;9.60;;;8.90;83.10;;;;;;5029195;28;20033;-76
2023/04/08 01:35:22;;;;;;;11.85;8.82;;;8.90;83.30;;;;;;5021155;28;20460;-75
2023/04/08 01:37:50;;;;;;;12.93;9.05;;;8.90;83.30;;;;;;5025138;28;20128;-76
2023/04/08 01:40:18;;;;;;;13.77;9.05;;;8.90;83.20;;;;;;5019799;28;20045;-75
2023/04/08 01:42:46;;;;;;;18.08;9.40;;;8.90;83.30;;;;;;5027399;28;20029;-75
2023/04/08 01:45:13;;;;;;;15.15;9.23;;;8.80;83.30;;;;;;5027645;28;20032;-75
2023/04/08 01:47:39;;;;;;;15.35;9.77;;;8.80;83.40;;;;;;5020347;28;20125;-75
2023/04/08 01:50:06;;;;;;;14.55;8.75;;;8.80;83.50;;;;;;5022659;28;20394;-76
2023/04/08 01:52:34;;;;;;;15.38;9.60;;;8.80;83.50;;;;;;5030050;28;20034;-75
2023/04/08 01:55:00;;;;;;;15.00;9.85;;;8.70;83.50;;;;;;5026425;28;20377;-76
2023/04/08 01:57:32;;;;;;;16.50;9.55;;;8.70;83.60;;;;;;5024127;28;20116;-75
2023/04/08 02:00:04;;;;;;;21.90;10.27;;;8.70;83.50;;;;;;5024094;28;20061;-76
2023/04/08 02:02:32;;;;;;;13.15;8.88;;;8.70;83.30;;;;;;5032410;28;20900;-75
2023/04/08 02:04:57;;;;;;;13.48;9.35;;;8.60;83.40;;;;;;5027030;28;20033;-76
2023/04/08 02:07:23;;;;;;;14.38;8.25;;;8.70;83.30;;;;;;5028588;28;20052;-75
2023/04/08 02:09:50;;;;;;;13.65;8.88;;;8.70;83.20;;;;;;5032643;28;20025;-76
2023/04/08 02:12:16;;;;;;;14.63;9.40;;;8.70;82.90;;;;;;5028789;28;20116;-77
2023/04/08 02:14:42;;;;;;;14.43;8.80;;;8.70;82.80;;;;;;5031647;28;20136;-76
2023/04/08 02:17:37;;;;;;;13.45;8.80;;;8.60;82.80;;;;;;5025747;28;20042;-77
2023/04/08 02:20:10;;;;;;;14.50;8.95;;;8.70;82.60;;;;;;5044553;28;20524;-76
2023/04/08 02:22:49;;;;;;;18.08;8.45;;;8.70;82.50;;;;;;5032631;28;20473;-76
2023/04/08 02:25:19;;;;;;;12.20;8.15;;;8.70;82.60;;;;;;5027675;28;20111;-75
2023/04/08 02:27:47;;;;;;;13.50;9.10;;;8.70;82.50;;;;;;5030014;28;20048;-76
2023/04/08 02:30:14;;;;;;;13.45;8.85;;;8.70;82.40;;;;;;5030540;28;20044;-75
2023/04/08 02:32:41;;;;;;;15.90;9.20;;;8.70;82.30;;;;;;5031289;28;20116;-76
2023/04/08 02:35:10;;;;;;;12.93;9.20;;;8.70;82.10;;;;;;5027533;28;20025;-75
2023/04/08 02:37:36;;;;;;;13.88;8.95;;;8.70;81.90;;;;;;5022173;28;20091;-75
2023/04/08 02:40:01;;;;;;;12.07;8.73;;;8.70;81.80;;;;;;5025817;28;20120;-75
2023/04/08 02:42:27;;;;;;;14.40;9.48;;;8.70;81.80;;;;;;5024334;28;20034;-77
2023/04/08 02:44:53;;;;;;;13.57;8.52;;;8.70;81.70;;;;;;5015974;28;20029;-77
2023/04/08 02:47:19;;;;;;;13.73;9.15;;;8.80;81.70;;;;;;5027430;28;20037;-74
2023/04/08 02:49:44;;;;;;;12.25;8.50;;;8.70;81.40;;;;;;5029909;28;20054;-74
2023/04/08 02:52:10;;;;;;;13.80;9.52;;;8.80;81.30;;;;;;5025597;28;20046;-74
2023/04/08 02:54:36;;;;;;;14.02;9.25;;;8.80;81.10;;;;;;5021250;28;20023;-75
2023/04/08 02:57:01;;;;;;;14.23;8.35;;;8.80;81.30;;;;;;5024867;28;20037;-74
2023/04/08 02:59:27;;;;;;;10.75;8.15;;;8.80;81.20;;;;;;5030141;28;20049;-76
2023/04/08 03:01:53;;;;;;;12.45;9.38;;;8.80;81.10;;;;;;5024986;28;20450;-75
2023/04/08 03:04:19;;;;;;;15.20;9.27;;;8.80;81.10;;;;;;5023948;28;20021;-74
2023/04/08 03:06:44;;;;;;;13.95;8.80;;;8.70;81.20;;;;;;5031340;28;20041;-76
2023/04/08 03:09:10;;;;;;;12.80;8.80;;;8.80;81.30;;;;;;5029682;28;20033;-74
2023/04/08 03:11:36;;;;;;;15.30;9.52;;;8.80;81.50;;;;;;5033921;28;20045;-74
2023/04/08 03:14:01;;;;;;;13.98;8.63;;;8.70;81.70;;;;;;5026376;28;20033;-74
2023/04/08 03:16:27;;;;;;;16.02;9.63;;;8.70;81.70;;;;;;5027220;28;20042;-75
2023/04/08 03:18:53;;;;;;;14.55;9.32;;;8.70;81.90;;;;;;5026826;28;20471;-75
2023/04/08 03:21:18;;;;;;;13.30;9.07;;;8.70;82.10;;;;;;5027623;28;20401;-76
2023/04/08 03:23:44;;;;;;;16.63;9.57;;;8.70;82.20;;;;;;5035351;28;20033;-74
2023/04/08 03:26:10;;;;;;;17.98;9.75;;;8.60;82.30;;;;;;5020187;28;20455;-74
2023/04/08 03:28:36;;;;;;;13.43;9.63;;;8.70;82.40;;;;;;5040557;28;20033;-74
2023/04/08 03:31:03;;;;;;;15.85;10.25;;;8.60;82.60;;;;;;5022189;28;20482;-75
2023/04/08 03:33:29;;;;;;;14.70;10.30;;;8.60;82.90;;;;;;5029585;28;20029;-74
2023/04/08 03:35:55;;;;;;;15.82;10.20;;;8.60;83.30;;;;;;5020397;28;20057;-74
2023/04/08 03:38:21;;;;;;;16.08;10.77;;;8.60;83.40;;;;;;5030489;28;20096;-73
2023/04/08 03:40:46;;;;;;;16.80;11.13;;;8.60;83.70;;;;;;5021857;28;20045;-74
2023/04/08 03:43:13;;;;;;;15.57;10.65;;;8.60;83.70;;;;;;5021198;28;20490;-73
2023/04/08 03:45:39;;;;;;;16.88;11.05;;;8.60;83.90;;;;;;5025712;28;20032;-74
2023/04/08 03:48:07;;;;;;;18.23;11.90;;;8.60;83.90;;;;;;5019944;28;20041;-74
2023/04/08 03:50:32;;;;;;;19.55;11.30;;;8.50;84.00;;;;;;5025806;28;20037;-74
2023/04/08 03:52:58;;;;;;;18.60;11.45;;;8.50;84.00;;;;;;5023861;28;20106;-76
2023/04/08 03:55:24;;;;;;;20.58;12.68;;;8.60;84.00;;;;;;5025208;28;20025;-73
2023/04/08 03:57:49;;;;;;;21.00;12.15;;;8.60;84.00;;;;;;5027452;28;20057;-74
2023/04/08 04:00:15;;;;;;;18.40;11.52;;;8.60;84.00;;;;;;5020936;28;20505;-74
2023/04/08 04:02:41;;;;;;;18.90;11.82;;;8.60;84.10;;;;;;5015779;28;20088;-75
2023/04/08 04:05:07;;;;;;;18.00;12.05;;;8.60;84.10;;;;;;5020257;28;20462;-75
2023/04/08 04:07:33;;;;;;;18.65;11.70;;;8.60;84.10;;;;;;5027197;28;20087;-75
2023/04/08 04:09:58;;;;;;;19.92;12.10;;;8.60;84.20;;;;;;5017833;28;20026;-79
2023/04/08 04:12:25;;;;;;;15.60;10.05;;;8.60;84.10;;;;;;5023962;28;20052;-74
2023/04/08 04:14:51;;;;;;;16.23;10.35;;;8.60;84.10;;;;;;5023269;28;20029;-76
2023/04/08 04:17:16;;;;;;;19.45;12.00;;;8.60;83.90;;;;;;5021998;28;20033;-75
2023/04/08 04:19:42;;;;;;;16.48;11.32;;;8.60;83.70;;;;;;5033199;28;20036;-75
2023/04/08 04:22:08;;;;;;;15.43;10.48;;;8.60;83.80;;;;;;5033924;28;20048;-75
2023/04/08 04:24:34;;;;;;;16.35;10.77;;;8.60;83.70;;;;;;5029661;28;20621;-75
2023/04/08 04:26:59;;;;;;;15.65;10.73;;;8.60;83.50;;;;;;5023706;28;20045;-75
2023/04/08 04:29:25;;;;;;;16.85;10.68;;;8.60;83.40;;;;;;5036959;28;20030;-75
2023/04/08 04:31:50;;;;;;;20.48;10.68;;;8.60;83.40;;;;;;5030056;28;20397;-75
2023/04/08 04:34:16;;;;;;;16.10;10.30;;;8.60;83.20;;;;;;5029988;28;20030;-75
2023/04/08 04:36:42;;;;;;;15.35;10.10;;;8.60;83.10;;;;;;5030910;28;20029;-76
2023/04/08 04:39:08;;;;;;;15.25;10.60;;;8.60;82.80;;;;;;5036255;28;20475;-75
2023/04/08 04:41:37;;;;;;;14.98;10.48;;;8.60;82.40;;;;;;5047231;28;20040;-75
2023/04/08 04:44:03;;;;;;;15.57;10.75;;;8.60;81.90;;;;;;5048723;28;20108;-76
2023/04/08 04:46:29;;;;;;;16.58;10.35;;;8.60;81.70;;;;;;5032887;28;20132;-75
2023/04/08 04:48:55;;;;;;;14.23;10.73;;;8.60;81.30;;;;;;5037344;28;20546;-75
2023/04/08 04:51:21;;;;;;;14.68;10.43;;;8.50;80.90;;;;;;5025130;28;20036;-75
2023/04/08 04:53:48;;;;;;;17.10;10.10;;;8.60;81.00;;;;;;5032769;28;20021;-74
2023/04/08 04:56:13;;;;;;;19.85;11.80;;;8.60;80.90;;;;;;5030705;28;20116;-75
2023/04/08 04:58:39;;;;;;;15.25;10.70;;;8.60;80.70;;;;;;5034994;28;20253;-75
2023/04/08 05:01:05;;;;;;;16.58;11.10;;;8.60;80.70;;;;;;5027746;28;20044;-78
2023/04/08 05:03:31;;;;;;;13.20;9.45;;;8.60;80.60;;;;;;5029239;28;20029;-75
2023/04/08 05:05:56;;;;;;;12.60;9.40;;;8.60;80.40;;;;;;5023863;28;20037;-75
2023/04/08 05:08:22;;;;;;;14.18;10.70;;;8.60;80.10;;;;;;5025046;28;20378;-75
2023/04/08 05:10:51;;;;;;;13.63;10.07;;;8.60;79.70;;;;;;5029212;28;20033;-78
2023/04/08 05:13:17;;;;;;;14.63;10.43;;;8.60;79.90;;;;;;5036699;28;20107;-78
2023/04/08 05:15:44;;;;;;;13.52;10.35;;;8.60;80.00;;;;;;5037060;28;20467;-78
2023/04/08 05:18:10;;;;;;;14.23;10.48;;;8.60;79.90;;;;;;5031732;28;20497;-78
2023/04/08 05:20:36;;;;;;;13.07;9.65;;;8.60;80.00;;;;;;5028435;28;20040;-78
2023/04/08 05:23:02;;;;;;;14.05;10.15;;;8.70;80.10;;;;;;5035827;28;20021;-78
2023/04/08 05:25:29;;;;;;;16.75;9.93;;;8.60;80.20;;;;;;5028929;28;20179;-79
2023/04/08 05:27:55;;;;;;;14.23;10.13;;;8.70;80.20;;;;;;5034709;28;20044;-78
2023/04/08 05:30:21;;;;;;;13.13;10.00;;;8.70;79.70;;;;;;5031644;28;20037;-78
2023/04/08 05:32:47;;;;;;;14.48;9.60;;;8.70;79.60;;;;;;5031994;28;20367;-78
2023/04/08 05:35:12;;;;;;;16.88;9.25;;;8.70;79.40;;;;;;5029085;28;20130;-78
2023/04/08 05:37:38;;;;;;;14.30;9.40;;;8.70;79.10;;;;;;5027713;28;20041;-78
2023/04/08 05:40:04;;;;;;;13.68;9.82;;;8.80;78.90;;;;;;5025481;28;20041;-77
2023/04/08 05:42:31;;;;;;;14.18;10.50;;;8.80;79.00;;;;;;5018347;28;20184;-78
2023/04/08 05:44:57;;;;;;;14.88;10.05;;;8.80;79.00;;;;;;5020733;28;20124;-77
2023/04/08 05:47:23;;;;;;;15.20;9.85;;;8.80;78.90;;;;;;5024033;28;20168;-77
2023/04/08 05:49:48;;;;;;;13.75;10.05;;;8.80;78.70;;;;;;5023042;28;20048;-78
2023/04/08 05:52:15;;;;;;;13.50;9.68;;;8.90;78.40;;;;;;5024358;28;20037;-77
2023/04/08 05:54:44;;;;;;;13.43;9.55;;;8.80;78.10;;;;;;5020782;28;20108;-77
2023/04/08 05:57:10;;;;;;;14.75;9.98;;;8.90;78.10;;;;;;5022206;28;20033;-77
2023/04/08 05:59:36;;;;;;;12.73;10.02;;;8.90;78.20;;;;;;5025817;28;20056;-78
2023/04/08 06:02:02;;;;;;;14.48;10.27;;;9.00;77.90;;;;;;5029410;28;20033;-77
2023/04/08 06:04:27;;;;;;;13.82;9.63;;;9.00;77.30;;;;;;5026032;28;20040;-77
2023/04/08 06:06:53;;;;;;;14.20;10.07;;;9.10;77.20;;;;;;5025301;28;20033;-77
2023/04/08 06:09:19;;;;;;;13.20;10.23;;;9.10;77.40;;;;;;5022629;28;20426;-78
2023/04/08 06:11:46;;;;;;;14.90;9.15;;;9.10;77.10;;;;;;5025820;28;20099;-77
2023/04/08 06:14:12;;;;;;;13.43;8.93;;;9.10;76.70;;;;;;5026463;28;20037;-77
2023/04/08 06:16:37;;;;;;;11.75;8.43;;;9.20;76.40;;;;;;5028536;28;20055;-78
2023/04/08 06:19:03;;;;;;;13.38;9.27;;;9.20;76.10;;;;;;5037633;28;20032;-77
2023/04/08 06:21:29;;;;;;;12.05;8.80;;;9.20;75.80;;;;;;5028987;28;20052;-77
2023/04/08 06:23:54;;;;;;;13.10;8.63;;;9.30;76.20;;;;;;5031976;28;20041;-77
2023/04/08 06:26:20;;;;;;;12.23;8.73;;;9.30;76.00;;;;;;5030934;28;20037;-77
2023/04/08 06:28:46;;;;;;;11.65;8.70;;;9.30;75.70;;;;;;5038403;28;20370;-78
2023/04/08 06:31:11;;;;;;;11.52;8.70;;;9.40;75.70;;;;;;5027885;28;20394;-78
2023/04/08 06:33:37;;;;;;;12.35;9.25;;;9.40;75.50;;;;;;5028166;28;20105;-78
2023/04/08 06:36:05;;;;;;;13.00;9.55;;;9.40;75.70;;;;;;5028306;28;20058;-78
2023/04/08 06:38:31;;;;;;;12.38;8.88;;;9.50;76.00;;;;;;5027543;28;20030;-78
2023/04/08 06:41:03;;;;;;;12.43;9.82;;;9.50;75.70;;;;;;5022539;28;20506;-78
2023/04/08 06:43:30;;;;;;;12.70;8.75;;;9.50;75.50;;;;;;5025973;28;20026;-78
2023/04/08 06:45:55;;;;;;;12.80;9.32;;;9.60;75.60;;;;;;5018232;28;20062;-77
2023/04/08 06:48:22;;;;;;;11.93;9.45;;;9.60;75.60;;;;;;5029154;28;20064;-78
2023/04/08 06:50:48;;;;;;;13.55;8.90;;;9.70;75.60;;;;;;5022939;28;20121;-78
2023/04/08 06:53:14;;;;;;;12.93;8.95;;;9.70;75.30;;;;;;5021463;28;20526;-78
2023/04/08 06:55:40;;;;;;;13.23;8.88;;;9.80;75.30;;;;;;5021962;28;20033;-78
2023/04/08 06:58:05;;;;;;;12.57;9.27;;;9.90;75.20;;;;;;5022867;28;20121;-77
2023/04/08 07:00:31;;;;;;;13.73;9.60;;;9.90;75.10;;;;;;5028511;28;20033;-77
2023/04/08 07:02:57;;;;;;;14.85;8.68;;;10.00;75.20;;;;;;5021488;28;20030;-78
2023/04/08 07:05:23;;;;;;;12.85;9.05;;;10.10;75.00;;;;;;5024833;28;20014;-78
2023/04/08 07:07:48;;;;;;;12.43;8.25;;;10.10;74.70;;;;;;5019096;28;20040;-78
2023/04/08 07:10:14;;;;;;;10.75;7.82;;;10.20;74.40;;;;;;5025703;28;20029;-77
2023/04/08 07:12:40;;;;;;;12.48;8.38;;;10.30;74.40;;;;;;5026058;28;20381;-77
2023/04/08 07:15:06;;;;;;;14.70;8.18;;;10.40;73.90;;;;;;5025719;28;20025;-78
2023/04/08 07:17:32;;;;;;;15.10;8.98;;;10.50;74.00;;;;;;5025075;28;20035;-78
2023/04/08 07:19:58;;;;;;;11.35;7.60;;;10.40;73.20;;;;;;5040016;28;20025;-78
2023/04/08 07:22:24;;;;;;;11.57;8.25;;;10.60;73.50;;;;;;5028530;28;20266;-77
2023/04/08 07:24:50;;;;;;;12.07;8.40;;;10.60;73.10;;;;;;5033582;28;20028;-77
2023/04/08 07:27:16;;;;;;;10.02;7.82;;;10.60;72.70;;;;;;5027261;28;20033;-79
2023/04/08 07:29:42;;;;;;;11.57;8.00;;;10.70;73.20;;;;;;5021166;28;20517;-78
2023/04/08 07:32:07;;;;;;;12.73;8.82;;;10.80;72.50;;;;;;5022570;28;20033;-77
2023/04/08 07:34:35;;;;;;;11.93;8.27;;;10.90;72.30;;;;;;5026656;28;20528;-78
2023/04/08 07:37:01;;;;;;;15.38;9.27;;;11.00;72.30;;;;;;5024241;28;20073;-78
2023/04/08 07:39:27;;;;;;;11.70;8.52;;;11.10;72.40;;;;;;5028247;28;20468;-78
2023/04/08 07:41:53;;;;;;;13.55;7.97;;;11.00;71.20;;;;;;5022706;28;20379;-77
2023/04/08 07:44:18;;;;;;;10.43;7.45;;;11.00;70.60;;;;;;5026684;28;20075;-77
2023/04/08 07:46:48;;;;;;;12.52;7.90;;;10.90;70.90;;;;;;5023580;28;20057;-77
2023/04/08 07:49:13;;;;;;;10.57;7.78;;;11.00;71.50;;;;;;5028315;28;20470;-77
2023/04/08 07:51:39;;;;;;;12.30;8.57;;;11.10;70.90;;;;;;5028582;28;20044;-77
2023/04/08 07:54:05;;;;;;;11.18;7.45;;;11.10;71.00;;;;;;5025484;28;20101;-77
2023/04/08 07:56:30;;;;;;;10.90;8.18;;;11.10;70.70;;;;;;5027257;28;20041;-77
2023/04/08 07:58:56;;;;;;;13.00;7.45;;;11.20;70.50;;;;;;5024177;28;20117;-77
2023/04/08 08:01:22;;;;;;;12.70;7.18;;;11.20;70.70;;;;;;5027406;28;20049;-77
2023/04/08 08:03:49;;;;;;;10.68;6.90;;;11.20;70.20;;;;;;5028095;28;20036;-77
2023/04/08 08:06:15;;;;;;;12.02;7.55;;;11.10;69.50;;;;;;5026812;28;20048;-78
2023/04/08 08:08:41;;;;;;;9.82;6.57;;;11.20;70.00;;;;;;5016278;28;20025;-79
2023/04/08 08:11:07;;;;;;;10.98;7.00;;;11.10;69.90;;;;;;5029629;28;20037;-77
2023/04/08 08:13:33;;;;;;;9.23;6.63;;;11.20;69.00;;;;;;5024970;28;20109;-78
2023/04/08 08:15:59;;;;;;;8.82;6.28;;;11.10;68.70;;;;;;5022920;28;20460;-78
2023/04/08 08:18:25;;;;;;;11.02;6.07;;;11.10;68.20;;;;;;5033165;28;20033;-78
2023/04/08 08:20:51;;;;;;;11.13;6.53;;;11.00;67.70;;;;;;5041030;28;20040;-77
2023/04/08 08:23:17;;;;;;;9.23;6.30;;;11.10;68.20;;;;;;5037625;28;20795;-78
2023/04/08 08:25:43;;;;;;;10.15;6.80;;;11.10;67.80;;;;;;5031442;28;20033;-78
2023/04/08 08:28:09;;;;;;;10.05;6.78;;;11.10;67.70;;;;;;5028800;28;20462;-77
2023/04/08 08:30:34;;;;;;;10.60;7.28;;;11.10;67.50;;;;;;5023548;28;20030;-77
2023/04/08 08:33:00;;;;;;;9.32;6.72;;;11.20;68.30;;;;;;5029246;28;20508;-77
2023/04/08 08:35:26;;;;;;;11.77;7.45;;;11.40;67.60;;;;;;5027681;28;20033;-77
2023/04/08 08:37:52;;;;;;;9.60;7.50;;;11.50;67.70;;;;;;5027128;28;20540;-77
2023/04/08 08:40:17;;;;;;;10.18;7.25;;;11.50;66.80;;;;;;5030677;28;20445;-77
2023/04/08 08:42:51;;;;;;;12.30;7.78;;;11.50;67.50;;;;;;5029327;28;20065;-77
2023/04/08 08:45:19;;;;;;;12.63;7.53;;;11.50;67.50;;;;;;5025435;28;20116;-77
2023/04/08 08:47:45;;;;;;;11.88;7.97;;;11.40;67.00;;;;;;5026877;28;20034;-78
2023/04/08 08:50:11;;;;;;;10.85;7.35;;;11.40;68.50;;;;;;5017414;28;20033;-78
2023/04/08 08:52:37;;;;;;;11.20;7.30;;;11.60;68.20;;;;;;5026564;28;20092;-77
2023/04/08 08:55:03;;;;;;;9.95;7.18;;;11.70;67.90;;;;;;5024118;28;20033;-77
2023/04/08 08:57:28;;;;;;;13.88;7.53;;;11.80;66.90;;;;;;5027651;28;20056;-76
2023/04/08 08:59:54;;;;;;;9.77;7.30;;;11.80;65.90;;;;;;5027249;28;20084;-76
2023/04/08 09:02:28;;;;;;;10.50;7.30;;;11.90;66.70;;;;;;5027988;28;20053;-77
2023/04/08 09:05:04;;;;;;;11.30;7.45;;;12.10;66.80;;;;;;5027817;28;20050;-76
2023/04/08 09:07:34;;;;;;;10.38;7.55;;;12.10;66.30;;;;;;5031030;28;20034;-78
2023/04/08 09:09:59;;;;;;;11.85;7.15;;;12.10;66.80;;;;;;5018623;28;20120;-77
2023/04/08 09:12:27;;;;;;;13.18;7.82;;;12.10;65.80;;;;;;5026459;28;20119;-77
2023/04/08 09:15:12;;;;;;;11.75;8.25;;;12.10;66.30;;;;;;5024051;28;20382;-77
2023/04/08 09:17:40;;;;;;;9.55;7.28;;;12.30;66.00;;;;;;5016684;28;20034;-77
2023/04/08 09:20:14;;;;;;;11.13;7.57;;;12.60;66.20;;;;;;5036098;28;20037;-78
2023/04/08 09:23:00;;;;;;;17.92;8.88;;;12.70;64.40;;;;;;5024793;28;20363;-77
2023/04/08 09:25:28;;;;;;;15.60;7.70;;;12.90;64.80;;;;;;5023718;28;20041;-78
2023/04/08 09:27:54;;;;;;;12.40;7.40;;;13.10;63.30;;;;;;5028279;28;20044;-77
2023/04/08 09:30:22;;;;;;;10.77;8.05;;;13.30;63.80;;;;;;5027327;28;20049;-78
2023/04/08 09:32:53;;;;;;;13.25;8.50;;;13.30;62.00;;;;;;5018541;28;20427;-78
2023/04/08 09:35:19;;;;;;;11.45;8.30;;;13.30;62.90;;;;;;5026051;28;20033;-78
2023/04/08 09:37:45;;;;;;;11.00;8.50;;;13.00;62.50;;;;;;5030522;28;20033;-77
2023/04/08 09:40:12;;;;;;;12.52;8.82;;;12.90;63.10;;;;;;5020797;28;20041;-79
2023/04/08 09:42:40;;;;;;;10.63;8.50;;;13.00;63.20;;;;;;5019245;28;20546;-78
2023/04/08 09:45:09;;;;;;;12.07;8.82;;;13.10;64.00;;;;;;5013519;28;20109;-78
2023/04/08 09:47:46;;;;;;;11.63;8.52;;;13.00;64.10;;;;;;5020177;28;20490;-79
2023/04/08 09:50:12;;;;;;;10.63;8.40;;;12.90;64.00;;;;;;5020286;28;20088;-77
2023/04/08 09:52:53;;;;;;;12.55;8.38;;;13.10;65.20;;;;;;5014831;28;20108;-77
2023/04/08 09:55:22;;;;;;;12.95;8.65;;;13.10;65.00;;;;;;5021399;28;20025;-78
2023/04/08 09:57:57;;;;;;;12.02;9.48;;;13.10;64.80;;;;;;5025095;28;20045;-78
2023/04/08 10:00:31;;;;;;;;;;;13.30;65.80;;;;;;5030478;28;20026;-78
2023/04/08 10:03:10;;;;;;;12.65;9.30;;;13.50;64.60;;;;;;5023288;28;19972;-77
2023/04/08 10:05:41;;;;;;;11.85;9.68;;;13.70;63.50;;;;;;5021676;28;20033;-78
2023/04/08 10:08:07;;;;;;;11.77;8.50;;;13.60;63.80;;;;;;5018524;28;20028;-78
2023/04/08 10:10:35;;;;;;;11.88;9.00;;;13.50;63.30;;;;;;5030746;28;20041;-77
2023/04/08 10:13:02;;;;;;;14.32;9.85;;;13.60;63.90;;;;;;5029521;28;20036;-79
2023/04/08 10:15:42;;;;;;;13.73;9.63;;;13.10;63.20;;;;;;5022723;28;20049;-78
2023/04/08 10:18:11;;;;;;;11.93;9.00;;;13.10;66.50;;;;;;5022114;28;20029;-78
2023/04/08 10:20:36;;;;;;;15.20;10.02;;;13.30;64.90;;;;;;5040326;28;20153;-78
2023/04/08 10:23:03;;;;;;;16.27;10.23;;;13.30;65.90;;;;;;5034857;28;20452;-77
2023/04/08 10:25:42;;;;;;;15.88;10.45;;;13.10;66.80;;;;;;5025753;28;20022;-78
2023/04/08 10:28:11;;;;;;;13.13;10.73;;;13.00;66.50;;;;;;5030434;28;20045;-78
2023/04/08 10:30:44;;;;;;;14.18;10.68;;;13.20;66.50;;;;;;5031594;28;20090;-78
2023/04/08 10:33:32;;;;;;;17.25;11.35;;;13.20;66.10;;;;;;5029739;28;20025;-77
2023/04/08 10:36:10;;;;;;;16.52;10.70;;;13.40;66.60;;;;;;5025059;28;20053;-78
2023/04/08 10:38:37;;;;;;;15.55;10.60;;;13.40;65.20;;;;;;5021142;28;20034;-77
2023/04/08 10:41:03;;;;;;;14.43;10.35;;;13.50;66.20;;;;;;5025936;28;20042;-77
2023/04/08 10:43:35;;;;;;;15.27;10.13;;;13.40;66.30;;;;;;5020930;28;20384;-77
2023/04/08 10:46:01;;;;;;;20.77;10.65;;;13.50;66.50;;;;;;5025773;28;20029;-76
2023/04/08 10:48:30;;;;;;;12.50;10.05;;;13.60;66.70;;;;;;5022528;28;20026;-78
2023/04/08 10:50:57;;;;;;;18.23;11.07;;;13.40;67.20;;;;;;5022198;28;20110;-77
2023/04/08 10:53:34;;;;;;;16.55;11.80;;;13.40;67.20;;;;;;5023605;28;20470;-77
2023/04/08 10:56:06;;;;;;;15.73;11.23;;;13.30;68.00;;;;;;5021463;28;20046;-78
2023/04/08 10:58:33;;;;;;;16.73;11.20;;;13.10;69.60;;;;;;5033510;28;20073;-77
2023/04/08 11:01:06;;;;;;;16.40;11.18;;;13.00;69.70;;;;;;5026703;28;20095;-78
2023/04/08 11:03:34;;;;;;;13.88;10.82;;;13.00;69.10;;;;;;5028833;28;20049;-77
2023/04/08 11:06:01;;;;;;;15.25;10.90;;;12.70;70.50;;;;;;5021859;28;20430;-77
2023/04/08 11:08:31;;;;;;;18.95;12.93;;;12.70;70.80;;;;;;5025198;28;20028;-77
2023/04/08 11:11:00;;;;;;;15.82;11.13;;;12.60;70.70;;;;;;5027775;28;20034;-77
2023/04/08 11:13:26;;;;;;;18.17;12.23;;;12.60;71.20;;;;;;5018737;28;20060;-77
2023/04/08 11:15:51;;;;;;;17.83;12.57;;;12.40;70.80;;;;;;5023745;28;20025;-78
2023/04/08 11:18:17;;;;;;;17.83;12.40;;;12.40;71.20;;;;;;5024989;28;20425;-79
2023/04/08 11:20:43;;;;;;;19.23;12.18;;;12.50;71.10;;;;;;5033766;28;20095;-77
2023/04/08 11:23:16;;;;;;;17.75;12.77;;;12.50;71.50;;;;;;5031966;28;20029;-77
2023/04/08 11:25:43;;;;;;;17.70;12.32;;;12.70;71.10;;;;;;5030350;28;20060;-76
2023/04/08 11:28:10;;;;;;;16.23;12.75;;;12.80;71.40;;;;;;5025315;28;20025;-78
2023/04/08 11:30:36;;;;;;;18.48;12.85;;;12.80;71.70;;;;;;5019110;28;20040;-79
2023/04/08 11:33:01;;;;;;;20.20;14.05;;;12.90;70.60;;;;;;5027836;28;20064;-79
2023/04/08 11:35:30;;;;;;;18.33;12.63;;;12.80;70.30;;;;;;5015850;28;20023;-78
2023/04/08 11:37:57;;;;;;;19.83;14.40;;;12.70;70.30;;;;;;5017109;28;20079;-78
2023/04/08 11:40:23;;;;;;;23.52;17.35;;;12.60;69.50;;;;;;5020682;28;20063;-79
2023/04/08 11:42:49;;;;;;;21.50;14.32;;;12.50;71.50;;;;;;5026808;28;20033;-78
2023/04/08 11:45:18;;;;;;;19.75;15.65;;;12.60;70.80;;;;;;5024473;28;20033;-78
2023/04/08 11:47:44;;;;;;;21.95;15.80;;;12.20;72.70;;;;;;5022718;28;20113;-78
2023/04/08 11:50:10;;;;;;;20.83;15.70;;;12.40;73.00;;;;;;5026790;28;20497;-78
2023/04/08 11:52:47;;;;;;;22.40;15.02;;;12.40;72.30;;;;;;5024657;28;20061;-79
2023/04/08 11:55:30;;;;;;;18.30;14.80;;;12.40;73.30;;;;;;5013796;28;20065;-78
2023/04/08 11:58:02;;;;;;;20.75;16.15;;;12.60;73.40;;;;;;5032157;28;20056;-78
2023/04/08 12:00:28;;;;;;;20.67;15.95;;;12.60;73.40;;;;;;5024773;28;20030;-77
2023/04/08 12:02:54;;;;;;;25.33;16.95;;;12.40;73.60;;;;;;5030141;28;20486;-77
2023/04/08 12:05:20;;;;;;;25.27;16.48;;;12.30;75.00;;;;;;5025686;28;20029;-78
2023/04/08 12:07:46;;;;;;;22.25;16.33;;;12.10;75.00;;;;;;5027738;28;20041;-78
2023/04/08 12:10:12;;;;;;;21.00;15.77;;;12.10;75.50;;;;;;5024604;28;20033;-77
2023/04/08 12:12:39;;;;;;;21.50;15.45;;;12.20;74.10;;;;;;5025654;28;20116;-78
2023/04/08 12:15:07;;;;;;;25.33;15.85;;;12.10;74.10;;;;;;5022009;28;20048;-77
2023/04/08 12:17:33;;;;;;;23.13;16.48;;;12.20;73.60;;;;;;5026324;28;20048;-77
2023/04/08 12:19:59;;;;;;;19.83;15.65;;;12.00;74.10;;;;;;5029858;28;20049;-78
2023/04/08 12:22:25;;;;;;;22.50;14.98;;;12.10;74.20;;;;;;5032952;28;20033;-77
2023/04/08 12:24:50;;;;;;;25.88;16.33;;;12.30;73.40;;;;;;5032008;28;20837;-78
2023/04/08 12:27:16;;;;;;;23.15;15.55;;;12.30;72.80;;;;;;5032929;28;20037;-78
2023/04/08 12:29:42;;;;;;;22.23;17.38;;;12.30;73.00;;;;;;5027879;28;20470;-78
2023/04/08 12:32:08;;;;;;;23.33;16.60;;;12.20;72.90;;;;;;5025014;28;20033;-78
2023/04/08 12:34:33;;;;;;;23.70;17.60;;;12.30;73.60;;;;;;5029446;28;20029;-78
2023/04/08 12:36:59;;;;;;;23.23;16.77;;;12.30;73.00;;;;;;5035638;28;20080;-79
2023/04/08 12:39:25;;;;;;;23.30;16.60;;;12.40;73.50;;;;;;5030248;28;20025;-75